Time;durP1;ratioP1;P1;durP2;ratioP2;P2;SDS_P1;SDS_P2;PMS_P1;PMS_P2;Temp;Humidity;BMP_temperature;BMP_pressure;BME280_temperature;BME280_humidity;BME280_pressure;Samples;Min_cycle;Max_cycle;Signal;HPM_P1;HPM_P2
2022/04/09 00:00:43;;;;;;;7.97;1.33;;;4.20;99.90;;;;;;5097208;28;20039;-78
2022/04/09 00:03:09;;;;;;;13.18;3.17;;;4.20;99.90;;;;;;5114369;28;20502;-78
2022/04/09 00:05:35;;;;;;;14.15;1.85;;;4.10;99.90;;;;;;5096906;28;20048;-77
2022/04/09 00:08:02;;;;;;;10.40;2.97;;;4.20;99.90;;;;;;5113603;28;20048;-77
2022/04/09 00:10:28;;;;;;;9.35;1.40;;;4.20;99.90;;;;;;5114487;28;20035;-77
2022/04/09 00:12:53;;;;;;;9.77;1.90;;;4.20;99.90;;;;;;5096570;28;20478;-77
2022/04/09 00:15:20;;;;;;;3.22;1.27;;;4.20;99.90;;;;;;5079991;28;20428;-77
2022/04/09 00:17:47;;;;;;;9.68;1.55;;;4.30;99.90;;;;;;5114045;28;20043;-77
2022/04/09 00:20:15;;;;;;;8.95;1.23;;;4.30;99.90;;;;;;5114957;28;20071;-76
2022/04/09 00:22:41;;;;;;;6.20;1.30;;;4.30;99.90;;;;;;5114761;28;20075;-77
2022/04/09 00:25:10;;;;;;;9.77;1.52;;;4.30;99.90;;;;;;5113911;28;20046;-77
2022/04/09 00:27:36;;;;;;;7.28;1.25;;;4.30;99.90;;;;;;5114853;28;20475;-78
2022/04/09 00:30:08;;;;;;;7.90;2.35;;;4.30;99.90;;;;;;5096377;28;20047;-78
2022/04/09 00:32:34;;;;;;;9.75;1.50;;;4.30;99.90;;;;;;5093675;28;20398;-78
2022/04/09 00:35:01;;;;;;;10.63;1.27;;;4.30;99.90;;;;;;5094694;28;20040;-78
2022/04/09 00:37:27;;;;;;;16.45;2.10;;;4.30;99.90;;;;;;5114060;28;20397;-78
2022/04/09 00:39:53;;;;;;;7.40;1.48;;;4.30;99.90;;;;;;5113488;28;20032;-78
2022/04/09 00:42:19;;;;;;;17.40;2.83;;;4.30;99.90;;;;;;5114525;28;20046;-78
2022/04/09 00:44:46;;;;;;;12.90;3.13;;;4.40;99.90;;;;;;5092815;28;20051;-78
2022/04/09 00:47:12;;;;;;;13.10;1.35;;;4.30;99.90;;;;;;5093457;28;20052;-78
2022/04/09 00:49:39;;;;;;;12.85;2.13;;;4.30;99.90;;;;;;5103271;28;20044;-78
2022/04/09 00:52:06;;;;;;;18.50;2.92;;;4.40;99.90;;;;;;5114237;28;20136;-79
2022/04/09 00:54:36;;;;;;;10.00;2.42;;;4.40;99.90;;;;;;5095011;28;20190;-79
2022/04/09 00:57:05;;;;;;;9.07;2.20;;;4.40;99.90;;;;;;5114544;28;20071;-78
2022/04/09 00:59:35;;;;;;;13.43;2.60;;;4.40;99.90;;;;;;5091652;28;20495;-79
2022/04/09 01:02:01;;;;;;;16.25;2.92;;;4.30;99.90;;;;;;5094029;28;20109;-79
2022/04/09 01:04:27;;;;;;;13.30;1.95;;;4.30;99.90;;;;;;5099812;28;20032;-78
2022/04/09 01:06:55;;;;;;;9.63;2.03;;;4.30;99.90;;;;;;5113020;28;20484;-79
2022/04/09 01:09:21;;;;;;;19.92;1.88;;;4.30;99.90;;;;;;5114024;28;20108;-79
2022/04/09 01:11:47;;;;;;;20.77;2.78;;;4.30;99.90;;;;;;5114183;28;20043;-79
2022/04/09 01:14:13;;;;;;;10.55;1.80;;;4.40;99.90;;;;;;5113021;28;20090;-78
2022/04/09 01:16:40;;;;;;;11.60;1.85;;;4.40;99.90;;;;;;5114217;28;20046;-78
2022/04/09 01:19:06;;;;;;;9.73;1.73;;;4.40;99.90;;;;;;5095643;28;20497;-79
2022/04/09 01:21:32;;;;;;;7.82;1.75;;;4.40;99.90;;;;;;5091528;28;20060;-78
2022/04/09 01:23:59;;;;;;;10.60;1.92;;;4.40;99.90;;;;;;5093544;28;20047;-78
2022/04/09 01:26:25;;;;;;;13.48;1.88;;;4.40;99.90;;;;;;5112990;28;20047;-78
2022/04/09 01:28:51;;;;;;;10.68;1.50;;;4.40;99.90;;;;;;5112482;28;20032;-78
2022/04/09 01:31:17;;;;;;;9.70;1.45;;;4.30;99.90;;;;;;5113878;28;20054;-78
2022/04/09 01:33:43;;;;;;;11.73;1.80;;;4.30;99.90;;;;;;5113758;28;20050;-78
2022/04/09 01:36:10;;;;;;;9.15;2.10;;;4.20;99.90;;;;;;5112943;28;20519;-79
2022/04/09 01:38:36;;;;;;;6.15;1.20;;;4.10;99.90;;;;;;5113813;28;20390;-78
2022/04/09 01:41:03;;;;;;;6.75;1.27;;;4.00;99.90;;;;;;5113822;28;20043;-78
2022/04/09 01:43:29;;;;;;;7.40;1.50;;;4.00;99.90;;;;;;5112721;28;20050;-78
2022/04/09 01:45:55;;;;;;;6.95;1.45;;;3.90;99.90;;;;;;5113873;28;20044;-78
2022/04/09 01:48:20;;;;;;;5.13;0.82;;;3.90;99.90;;;;;;5113144;28;20101;-78
2022/04/09 01:50:47;;;;;;;5.50;1.00;;;3.90;99.90;;;;;;5094889;28;20525;-78
2022/04/09 01:53:13;;;;;;;7.18;1.10;;;3.80;99.90;;;;;;5113136;28;20051;-78
2022/04/09 01:55:39;;;;;;;13.30;2.13;;;3.80;99.90;;;;;;5094964;28;20437;-78
2022/04/09 01:58:05;;;;;;;10.52;2.75;;;3.80;99.90;;;;;;5113536;28;20052;-78
2022/04/09 02:00:31;;;;;;;5.10;1.15;;;3.70;99.90;;;;;;5113280;28;20514;-78
2022/04/09 02:02:57;;;;;;;5.68;1.08;;;3.70;99.90;;;;;;5112867;28;20043;-78
2022/04/09 02:05:24;;;;;;;7.60;1.48;;;3.70;99.90;;;;;;5113263;28;20039;-79
2022/04/09 02:07:51;;;;;;;7.72;1.75;;;3.70;99.90;;;;;;5095561;28;20047;-78
2022/04/09 02:10:18;;;;;;;10.50;1.15;;;3.60;99.90;;;;;;5112617;28;20039;-78
2022/04/09 02:12:44;;;;;;;5.68;1.48;;;3.60;99.90;;;;;;5095006;28;20043;-78
2022/04/09 02:15:12;;;;;;;10.25;1.30;;;3.50;99.90;;;;;;5113652;28;20043;-78
2022/04/09 02:17:38;;;;;;;6.28;1.48;;;3.50;99.90;;;;;;5113143;28;20043;-78
2022/04/09 02:20:06;;;;;;;11.40;1.85;;;3.50;99.90;;;;;;5117408;28;20070;-79
2022/04/09 02:22:37;;;;;;;13.50;2.40;;;3.50;99.90;;;;;;5117204;28;20039;-79
2022/04/09 02:25:08;;;;;;;13.25;1.65;;;3.50;99.90;;;;;;5081104;28;20546;-79
2022/04/09 02:27:34;;;;;;;9.65;1.20;;;3.40;99.90;;;;;;5081887;28;20048;-79
2022/04/09 02:30:01;;;;;;;10.18;2.42;;;3.40;99.90;;;;;;5117328;28;20036;-79
2022/04/09 02:32:26;;;;;;;16.65;2.47;;;3.40;99.90;;;;;;5115969;28;20058;-79
2022/04/09 02:34:53;;;;;;;12.98;1.27;;;3.30;99.90;;;;;;5098763;28;20043;-79
2022/04/09 02:37:20;;;;;;;10.65;1.73;;;3.30;99.90;;;;;;5116974;28;20455;-79
2022/04/09 02:39:46;;;;;;;5.25;1.10;;;3.30;99.90;;;;;;5097999;28;20048;-79
2022/04/09 02:42:14;;;;;;;16.98;2.55;;;3.20;99.90;;;;;;5116881;28;20081;-79
2022/04/09 02:44:43;;;;;;;12.70;1.83;;;3.20;99.90;;;;;;5098960;28;20079;-79
2022/04/09 02:47:09;;;;;;;7.43;1.50;;;3.20;99.90;;;;;;5115857;28;20048;-79
2022/04/09 02:49:35;;;;;;;12.20;1.60;;;3.10;99.90;;;;;;5116702;28;20110;-79
2022/04/09 02:52:01;;;;;;;10.23;1.35;;;3.10;99.90;;;;;;5115518;28;20139;-79
2022/04/09 02:54:26;;;;;;;8.32;1.38;;;3.10;99.90;;;;;;5098502;28;20096;-79
2022/04/09 02:56:53;;;;;;;10.05;1.52;;;3.10;99.90;;;;;;5098360;28;20055;-79
2022/04/09 02:59:19;;;;;;;9.02;1.80;;;3.10;99.90;;;;;;5080713;28;20039;-79
2022/04/09 03:01:46;;;;;;;8.73;1.40;;;3.10;99.90;;;;;;5115998;28;20096;-78
2022/04/09 03:04:13;;;;;;;10.30;3.60;;;3.10;99.90;;;;;;5116665;28;20055;-78
2022/04/09 03:06:39;;;;;;;13.02;2.17;;;3.10;99.90;;;;;;5097207;28;20043;-79
2022/04/09 03:09:05;;;;;;;9.23;1.50;;;3.10;99.90;;;;;;5116099;28;20587;-79
2022/04/09 03:11:31;;;;;;;10.45;1.35;;;3.10;99.90;;;;;;5116104;28;20483;-79
2022/04/09 03:13:57;;;;;;;13.48;2.40;;;3.10;99.90;;;;;;5115406;28;20100;-79
2022/04/09 03:16:23;;;;;;;8.13;1.25;;;3.10;99.90;;;;;;5115963;28;20040;-79
2022/04/09 03:18:48;;;;;;;12.25;1.33;;;3.10;99.90;;;;;;5116441;28;20039;-78
2022/04/09 03:21:15;;;;;;;8.25;1.10;;;3.20;99.90;;;;;;5115332;28;20051;-78
2022/04/09 03:23:40;;;;;;;6.53;1.38;;;3.20;99.90;;;;;;5098299;28;20047;-78
2022/04/09 03:26:06;;;;;;;9.88;1.20;;;3.30;99.90;;;;;;5098007;28;20049;-78
2022/04/09 03:28:32;;;;;;;7.60;1.67;;;3.40;99.90;;;;;;5114870;28;20074;-78
2022/04/09 03:30:58;;;;;;;9.20;1.70;;;3.60;99.90;;;;;;5115165;28;20040;-79
2022/04/09 03:33:25;;;;;;;5.63;1.08;;;3.70;99.90;;;;;;5115369;28;20436;-78
2022/04/09 03:35:51;;;;;;;5.03;1.00;;;3.70;99.90;;;;;;5096770;28;20493;-78
2022/04/09 03:38:17;;;;;;;6.05;1.10;;;3.70;99.90;;;;;;5115981;28;20079;-79
2022/04/09 03:40:43;;;;;;;5.30;1.02;;;3.70;99.90;;;;;;5115772;28;20036;-79
2022/04/09 03:43:10;;;;;;;6.63;1.10;;;3.70;99.90;;;;;;5114909;28;20050;-79
2022/04/09 03:45:36;;;;;;;9.00;2.28;;;3.70;99.90;;;;;;5097364;28;20032;-79
2022/04/09 03:48:02;;;;;;;4.18;0.90;;;3.60;99.90;;;;;;5097357;28;20059;-79
2022/04/09 03:50:28;;;;;;;8.52;1.70;;;3.60;99.90;;;;;;5097171;28;20052;-79
2022/04/09 03:52:54;;;;;;;6.97;1.17;;;3.40;99.90;;;;;;5115533;28;20052;-79
2022/04/09 03:55:20;;;;;;;12.25;1.20;;;3.40;99.90;;;;;;5114423;28;20565;-79
2022/04/09 03:57:46;;;;;;;8.27;1.85;;;3.30;99.90;;;;;;5115338;28;20810;-79
2022/04/09 04:00:14;;;;;;;10.30;1.45;;;3.20;99.90;;;;;;5115590;28;20047;-79
2022/04/09 04:02:40;;;;;;;8.65;1.40;;;3.20;99.90;;;;;;5114424;28;20126;-79
2022/04/09 04:05:07;;;;;;;12.50;1.50;;;3.20;99.90;;;;;;5114878;28;20047;-79
2022/04/09 04:07:33;;;;;;;11.32;1.98;;;3.10;99.90;;;;;;5115404;28;20036;-79
2022/04/09 04:10:10;;;;;;;14.95;2.85;;;3.10;99.90;;;;;;5113761;28;20044;-79
2022/04/09 04:12:36;;;;;;;7.95;1.40;;;3.10;99.90;;;;;;5096750;28;20101;-79
2022/04/09 04:15:03;;;;;;;13.55;2.20;;;3.20;99.90;;;;;;5115106;28;20540;-79
2022/04/09 04:17:42;;;;;;;10.65;1.63;;;3.30;99.90;;;;;;5114094;28;20043;-79
2022/04/09 04:20:09;;;;;;;11.55;1.50;;;3.40;99.90;;;;;;5115240;28;20544;-79
2022/04/09 04:22:34;;;;;;;8.98;1.60;;;3.40;99.90;;;;;;5096477;28;20051;-79
2022/04/09 04:25:00;;;;;;;13.13;2.95;;;3.40;99.90;;;;;;5114342;28;20100;-79
2022/04/09 04:27:26;;;;;;;6.43;1.60;;;3.40;99.90;;;;;;5114877;28;20375;-79
2022/04/09 04:29:52;;;;;;;10.10;1.98;;;3.30;99.90;;;;;;5114818;28;20046;-79
2022/04/09 04:32:18;;;;;;;12.48;1.58;;;3.30;99.90;;;;;;5113712;28;20062;-79
2022/04/09 04:34:43;;;;;;;10.57;2.15;;;3.20;99.90;;;;;;5096931;28;20096;-79
2022/04/09 04:37:09;;;;;;;9.65;1.40;;;3.20;99.90;;;;;;5114563;28;20043;-79
2022/04/09 04:39:35;;;;;;;6.75;1.40;;;3.20;99.90;;;;;;5095852;28;20040;-78
2022/04/09 04:42:00;;;;;;;6.88;1.20;;;3.20;99.90;;;;;;5114089;28;20058;-79
2022/04/09 04:44:26;;;;;;;14.43;1.50;;;3.20;99.90;;;;;;5114178;28;20077;-79
2022/04/09 04:46:52;;;;;;;14.52;1.80;;;3.20;99.90;;;;;;5114257;28;20104;-79
2022/04/09 04:49:18;;;;;;;11.35;1.48;;;3.20;99.90;;;;;;5114437;28;20043;-79
2022/04/09 04:51:43;;;;;;;12.63;1.85;;;3.20;99.90;;;;;;5110923;28;22070;-79
2022/04/09 04:54:09;;;;;;;12.15;2.00;;;3.20;99.90;;;;;;5114302;28;20051;-79
2022/04/09 04:56:35;;;;;;;9.90;1.65;;;3.10;99.90;;;;;;5113939;28;20047;-79
2022/04/09 04:59:01;;;;;;;7.07;1.55;;;3.20;99.90;;;;;;5113634;28;20078;-79
2022/04/09 05:01:27;;;;;;;13.40;2.85;;;3.10;99.90;;;;;;5095666;28;20471;-79
2022/04/09 05:03:53;;;;;;;20.88;2.83;;;3.10;99.90;;;;;;5114177;28;20036;-78
2022/04/09 05:06:19;;;;;;;11.75;1.50;;;3.10;99.90;;;;;;5094991;28;20043;-79
2022/04/09 05:08:45;;;;;;;17.55;2.60;;;3.10;99.90;;;;;;5114192;28;20068;-79
2022/04/09 05:11:11;;;;;;;11.52;1.88;;;3.10;99.90;;;;;;5095305;28;20043;-78
2022/04/09 05:13:36;;;;;;;15.63;2.97;;;3.20;99.90;;;;;;5113477;28;20052;-79
2022/04/09 05:16:02;;;;;;;8.25;2.08;;;3.20;99.90;;;;;;5113795;28;20113;-79
2022/04/09 05:18:28;;;;;;;10.90;2.30;;;3.30;99.90;;;;;;5095749;28;20086;-79
2022/04/09 05:20:54;;;;;;;13.90;2.05;;;3.40;99.90;;;;;;5112931;28;20044;-79
2022/04/09 05:23:20;;;;;;;13.40;1.60;;;3.50;99.90;;;;;;5114181;28;20578;-78
2022/04/09 05:25:45;;;;;;;12.00;1.80;;;3.60;99.90;;;;;;5113699;28;20075;-78
2022/04/09 05:28:11;;;;;;;9.10;1.48;;;3.70;99.90;;;;;;5113475;28;20482;-78
2022/04/09 05:30:37;;;;;;;9.68;1.25;;;4.00;99.90;;;;;;5113660;28;20127;-77
2022/04/09 05:33:03;;;;;;;12.75;2.83;;;4.10;99.90;;;;;;5113904;28;20036;-78
2022/04/09 05:35:29;;;;;;;11.07;1.67;;;4.30;99.90;;;;;;5112756;28;20115;-77
2022/04/09 05:37:55;;;;;;;8.85;1.55;;;4.40;99.90;;;;;;5114021;28;20130;-78
2022/04/09 05:40:22;;;;;;;6.40;1.38;;;4.50;99.90;;;;;;5113726;28;20123;-77
2022/04/09 05:42:48;;;;;;;5.57;1.45;;;4.50;99.90;;;;;;5113095;28;20179;-78
2022/04/09 05:45:14;;;;;;;8.15;1.90;;;4.50;99.90;;;;;;5113529;28;20402;-78
2022/04/09 05:47:42;;;;;;;6.90;1.60;;;4.50;99.90;;;;;;5113144;28;20111;-77
2022/04/09 05:50:09;;;;;;;12.02;2.05;;;4.50;99.90;;;;;;5113524;28;20100;-78
2022/04/09 05:52:35;;;;;;;4.15;1.17;;;4.40;99.90;;;;;;5096038;28;20079;-78
2022/04/09 05:55:03;;;;;;;6.93;1.00;;;4.40;99.90;;;;;;5112721;28;20046;-78
2022/04/09 05:57:30;;;;;;;7.28;1.60;;;4.40;99.90;;;;;;5084185;28;20037;-78
2022/04/09 05:59:56;;;;;;;11.55;1.75;;;4.40;99.90;;;;;;5094121;28;20494;-78
2022/04/09 06:02:21;;;;;;;12.68;1.70;;;4.40;99.90;;;;;;5096264;28;20036;-79
2022/04/09 06:04:47;;;;;;;12.35;2.92;;;4.50;99.90;;;;;;5096981;28;20505;-77
2022/04/09 06:07:13;;;;;;;11.95;2.17;;;4.50;99.90;;;;;;5088108;28;20043;-78
2022/04/09 06:09:43;;;;;;;7.75;1.58;;;4.60;99.90;;;;;;5116961;28;20482;-78
2022/04/09 06:12:11;;;;;;;11.98;2.00;;;4.70;99.90;;;;;;5099398;28;20039;-78
2022/04/09 06:14:36;;;;;;;8.40;1.77;;;4.70;99.90;;;;;;5098938;28;20054;-77
2022/04/09 06:17:03;;;;;;;8.60;1.55;;;4.80;99.90;;;;;;5116624;28;20406;-77
2022/04/09 06:19:29;;;;;;;13.85;1.70;;;4.90;99.90;;;;;;5097694;28;20393;-78
2022/04/09 06:21:56;;;;;;;7.97;1.80;;;5.00;99.90;;;;;;5117350;28;20118;-78
2022/04/09 06:24:22;;;;;;;12.77;1.85;;;5.20;99.90;;;;;;5101303;28;20071;-77
2022/04/09 06:26:48;;;;;;;12.45;3.15;;;5.40;99.90;;;;;;5078779;28;20483;-77
2022/04/09 06:29:14;;;;;;;8.88;2.22;;;5.50;99.90;;;;;;5109919;28;20398;-78
2022/04/09 06:31:40;;;;;;;12.60;2.15;;;5.50;99.90;;;;;;5098216;28;20044;-76
2022/04/09 06:34:06;;;;;;;12.23;2.00;;;5.40;99.90;;;;;;5103360;28;20397;-77
2022/04/09 06:36:31;;;;;;;7.32;1.58;;;5.40;99.90;;;;;;5096897;28;20044;-77
2022/04/09 06:38:57;;;;;;;10.05;2.63;;;5.30;99.90;;;;;;5092815;28;20048;-77
2022/04/09 06:41:23;;;;;;;13.07;2.22;;;5.30;99.90;;;;;;5117190;28;20047;-76
2022/04/09 06:43:49;;;;;;;9.98;1.75;;;5.20;99.90;;;;;;5111420;28;20477;-77
2022/04/09 06:46:15;;;;;;;13.27;3.25;;;5.20;99.90;;;;;;5097890;28;20043;-77
2022/04/09 06:48:41;;;;;;;16.02;1.98;;;5.20;99.90;;;;;;5081394;28;20052;-77
2022/04/09 06:51:07;;;;;;;9.73;2.97;;;5.20;99.90;;;;;;5095814;28;20032;-77
2022/04/09 06:53:33;;;;;;;6.97;1.23;;;5.20;99.90;;;;;;5113794;28;20533;-78
2022/04/09 06:55:59;;;;;;;14.02;2.58;;;5.30;99.90;;;;;;5081648;28;20048;-77
2022/04/09 06:58:25;;;;;;;8.75;1.85;;;5.40;99.90;;;;;;5115594;28;20054;-77
2022/04/09 07:00:51;;;;;;;11.40;1.80;;;5.60;99.90;;;;;;5116730;28;20046;-76
2022/04/09 07:03:17;;;;;;;8.20;1.90;;;5.70;99.90;;;;;;5115950;28;20456;-77
2022/04/09 07:05:43;;;;;;;12.23;1.60;;;5.90;99.90;;;;;;5080700;28;20052;-77
2022/04/09 07:08:09;;;;;;;16.55;3.97;;;6.00;99.90;;;;;;5081459;28;20039;-75
2022/04/09 07:10:39;;;;;;;7.70;1.27;;;6.20;99.90;;;;;;5116677;28;20040;-76
2022/04/09 07:13:08;;;;;;;14.98;2.33;;;6.30;99.90;;;;;;5096985;28;20130;-77
2022/04/09 07:15:34;;;;;;;6.47;1.48;;;6.40;99.90;;;;;;5116200;28;20079;-76
2022/04/09 07:18:00;;;;;;;9.52;1.50;;;6.40;99.90;;;;;;5116234;28;20046;-76
2022/04/09 07:20:26;;;;;;;2.72;1.20;;;6.30;99.90;;;;;;5104291;28;20036;-77
2022/04/09 07:22:52;;;;;;;5.72;1.38;;;6.30;99.90;;;;;;5067591;28;20130;-77
2022/04/09 07:25:18;;;;;;;12.10;1.50;;;6.30;99.90;;;;;;5116303;28;20078;-77
2022/04/09 07:27:45;;;;;;;5.57;1.17;;;6.30;99.90;;;;;;5115200;28;20075;-76
2022/04/09 07:30:16;;;;;;;5.80;1.13;;;6.30;99.90;;;;;;5116162;28;20089;-77
2022/04/09 07:32:43;;;;;;;7.80;1.50;;;6.30;99.90;;;;;;5115618;28;20092;-77
2022/04/09 07:35:13;;;;;;;8.30;1.48;;;6.30;99.90;;;;;;5115331;28;20039;-76
2022/04/09 07:37:49;;;;;;;6.05;1.20;;;6.30;99.90;;;;;;5114472;28;20130;-76
2022/04/09 07:40:17;;;;;;;6.68;1.50;;;6.40;99.90;;;;;;5114406;28;20097;-77
2022/04/09 07:42:44;;;;;;;12.95;2.00;;;6.50;99.90;;;;;;5115233;28;20054;-76
2022/04/09 07:45:11;;;;;;;11.55;1.73;;;6.50;99.90;;;;;;5097098;28;20048;-76
2022/04/09 07:47:37;;;;;;;13.77;2.35;;;6.60;99.90;;;;;;5105655;28;20051;-77
2022/04/09 07:50:06;;;;;;;6.20;1.25;;;6.70;99.90;;;;;;5096240;28;20040;-76
2022/04/09 07:52:32;;;;;;;9.88;1.67;;;6.90;99.90;;;;;;5108137;28;20060;-76
2022/04/09 07:54:58;;;;;;;9.23;1.35;;;6.90;99.90;;;;;;5114411;28;20040;-76
2022/04/09 07:57:25;;;;;;;11.15;1.70;;;7.00;99.90;;;;;;5115574;28;20501;-78
2022/04/09 07:59:53;;;;;;;13.27;2.60;;;7.00;99.90;;;;;;5114948;28;20039;-76
2022/04/09 08:02:20;;;;;;;12.60;3.40;;;7.10;99.90;;;;;;5093185;28;20559;-76
2022/04/09 08:04:45;;;;;;;11.00;2.47;;;7.20;99.90;;;;;;5111225;28;20406;-77
2022/04/09 08:07:11;;;;;;;9.65;1.73;;;7.30;99.90;;;;;;5115484;28;20036;-76
2022/04/09 08:09:37;;;;;;;8.27;2.53;;;7.40;99.90;;;;;;5114510;28;20405;-76
2022/04/09 08:12:03;;;;;;;13.15;1.88;;;7.40;99.90;;;;;;5115069;28;20048;-76
2022/04/09 08:14:32;;;;;;;11.93;1.73;;;7.30;99.90;;;;;;5080251;28;20043;-76
2022/04/09 08:16:58;;;;;;;8.93;1.60;;;7.30;99.90;;;;;;5095758;28;20050;-78
2022/04/09 08:19:25;;;;;;;10.68;1.90;;;7.30;99.90;;;;;;5096728;28;20055;-77
2022/04/09 08:21:52;;;;;;;3.92;1.58;;;7.30;99.90;;;;;;5115188;28;20100;-76
2022/04/09 08:24:17;;;;;;;8.07;1.70;;;7.40;99.90;;;;;;5095978;28;20090;-77
2022/04/09 08:26:43;;;;;;;7.78;1.60;;;7.40;99.90;;;;;;5115057;28;20443;-76
2022/04/09 08:29:10;;;;;;;15.45;2.50;;;7.50;99.90;;;;;;5096969;28;20055;-77
2022/04/09 08:31:36;;;;;;;7.32;1.65;;;7.50;99.90;;;;;;5114163;28;20039;-77
2022/04/09 08:34:02;;;;;;;8.43;1.85;;;7.60;99.90;;;;;;5114856;28;20056;-76
2022/04/09 08:36:28;;;;;;;8.73;1.58;;;7.60;99.90;;;;;;5095680;28;20498;-76
2022/04/09 08:38:55;;;;;;;9.80;2.10;;;7.70;99.90;;;;;;5096701;28;20040;-77
2022/04/09 08:41:21;;;;;;;11.38;2.38;;;7.70;99.90;;;;;;5114626;28;20123;-77
2022/04/09 08:43:47;;;;;;;5.70;1.55;;;7.80;99.90;;;;;;5095673;28;20167;-76
2022/04/09 08:46:13;;;;;;;8.38;1.60;;;7.90;99.90;;;;;;5114775;28;20047;-76
2022/04/09 08:48:45;;;;;;;9.05;1.33;;;7.90;99.90;;;;;;5114940;28;20047;-77
2022/04/09 08:51:11;;;;;;;7.25;1.98;;;7.90;99.90;;;;;;5113941;28;20406;-76
2022/04/09 08:53:38;;;;;;;10.70;1.75;;;7.90;99.90;;;;;;5096013;28;20061;-75
2022/04/09 08:56:06;;;;;;;7.82;1.38;;;7.80;99.90;;;;;;5096180;28;20051;-76
2022/04/09 08:58:32;;;;;;;11.65;1.73;;;7.50;99.90;;;;;;5095713;28;20144;-75
2022/04/09 09:00:57;;;;;;;6.32;1.20;;;7.30;99.90;;;;;;5114251;28;20069;-75
2022/04/09 09:03:24;;;;;;;14.13;2.42;;;7.20;99.90;;;;;;5114373;28;20050;-76
2022/04/09 09:05:52;;;;;;;12.85;1.90;;;7.20;99.90;;;;;;5113565;28;20035;-76
2022/04/09 09:08:39;;;;;;;11.23;2.65;;;7.50;99.90;;;;;;5114096;28;20040;-76
2022/04/09 09:11:05;;;;;;;7.50;1.80;;;7.70;99.90;;;;;;5114385;28;20043;-76
2022/04/09 09:13:48;;;;;;;6.35;1.40;;;7.70;99.90;;;;;;5113223;28;20551;-75
2022/04/09 09:16:23;;;;;;;7.40;1.50;;;7.60;99.90;;;;;;5114262;28;20155;-75
2022/04/09 09:18:57;;;;;;;7.75;2.00;;;7.50;99.90;;;;;;5113385;28;20096;-76
2022/04/09 09:21:25;;;;;;;5.20;1.45;;;7.50;99.90;;;;;;5114299;28;20046;-76
2022/04/09 09:23:52;;;;;;;8.15;1.77;;;7.50;99.90;;;;;;5114134;28;20601;-76
2022/04/09 09:26:22;;;;;;;13.68;1.83;;;7.60;99.90;;;;;;5113219;28;20044;-74
2022/04/09 09:28:57;;;;;;;6.35;1.33;;;7.90;99.90;;;;;;5114060;28;20035;-76
2022/04/09 09:31:43;;;;;;;8.02;1.42;;;8.30;99.90;;;;;;5114139;28;20035;-77
2022/04/09 09:34:13;;;;;;;8.80;1.25;;;8.40;99.90;;;;;;5095141;28;20051;-77
2022/04/09 09:36:42;;;;;;;7.97;1.65;;;8.20;99.90;;;;;;5114064;28;20031;-77
2022/04/09 09:39:20;;;;;;;5.15;1.10;;;8.10;99.90;;;;;;5113967;28;20101;-77
2022/04/09 09:41:51;;;;;;;8.05;1.33;;;8.10;99.90;;;;;;5113014;28;20515;-77
2022/04/09 09:44:22;;;;;;;6.00;1.30;;;8.20;99.90;;;;;;5113804;28;20044;-76
2022/04/09 09:46:49;;;;;;;8.05;1.23;;;8.40;99.90;;;;;;5078541;28;20051;-76
2022/04/09 09:49:16;;;;;;;9.45;2.55;;;8.60;99.90;;;;;;5114137;28;20050;-77
2022/04/09 09:51:42;;;;;;;9.68;1.52;;;8.60;99.90;;;;;;5113535;28;20394;-76
2022/04/09 09:54:11;;;;;;;3.78;0.95;;;8.40;99.90;;;;;;5113202;28;20059;-75
2022/04/09 09:56:41;;;;;;;6.05;1.45;;;8.10;99.90;;;;;;5113686;28;20471;-76
2022/04/09 09:59:13;;;;;;;10.63;1.77;;;7.90;99.90;;;;;;5113910;28;20130;-76
2022/04/09 10:01:41;;;;;;;5.72;0.80;;;7.60;99.90;;;;;;5094676;28;20079;-76
2022/04/09 10:04:09;;;;;;;4.45;1.10;;;7.50;99.90;;;;;;5113780;28;20052;-76
2022/04/09 10:06:36;;;;;;;8.00;1.17;;;7.50;99.90;;;;;;5095610;28;20436;-76
2022/04/09 10:09:05;;;;;;;5.10;0.85;;;7.70;99.90;;;;;;5113055;28;20059;-76
2022/04/09 10:11:42;;;;;;;3.10;0.80;;;7.80;99.90;;;;;;5095375;28;20089;-76
2022/04/09 10:14:10;;;;;;;6.40;0.82;;;8.00;99.90;;;;;;5095755;28;20047;-76
2022/04/09 10:16:37;;;;;;;5.22;1.05;;;8.00;99.90;;;;;;5112745;28;20146;-76
2022/04/09 10:19:06;;;;;;;5.60;1.80;;;7.70;99.90;;;;;;5113591;28;20047;-76
2022/04/09 10:21:39;;;;;;;4.63;1.20;;;7.50;99.90;;;;;;5095245;28;20079;-76
2022/04/09 10:24:11;;;;;;;6.38;1.80;;;7.20;99.90;;;;;;5112860;28;20051;-77
2022/04/09 10:26:37;;;;;;;4.80;1.10;;;7.10;99.90;;;;;;5113626;28;20497;-77
2022/04/09 10:29:07;;;;;;;10.38;1.40;;;6.90;99.90;;;;;;5112675;28;20090;-76
2022/04/09 10:31:35;;;;;;;6.82;1.52;;;6.80;99.90;;;;;;5113562;28;20040;-76
2022/04/09 10:34:03;;;;;;;6.68;1.10;;;6.80;99.90;;;;;;5113177;28;20056;-76
2022/04/09 10:36:40;;;;;;;5.05;1.30;;;6.80;99.90;;;;;;5112683;28;20375;-76
2022/04/09 10:39:26;;;;;;;5.45;1.10;;;7.10;99.90;;;;;;5096720;28;20079;-75
2022/04/09 10:41:59;;;;;;;6.63;1.73;;;7.50;99.90;;;;;;5098966;28;20410;-77
2022/04/09 10:44:43;;;;;;;6.38;1.10;;;7.80;99.90;;;;;;5098149;28;20062;-76
2022/04/09 10:47:14;;;;;;;7.45;1.85;;;8.20;99.90;;;;;;5116829;28;20388;-77
2022/04/09 10:49:41;;;;;;;5.03;1.55;;;8.40;99.90;;;;;;5098974;28;20115;-77
2022/04/09 10:52:11;;;;;;;7.72;0.88;;;8.50;99.90;;;;;;5115983;28;20105;-76
2022/04/09 10:54:38;;;;;;;4.65;1.05;;;8.60;99.90;;;;;;5098490;28;20138;-75
2022/04/09 10:57:09;;;;;;;6.90;1.70;;;8.70;99.90;;;;;;5116796;28;20395;-77
2022/04/09 10:59:36;;;;;;;4.43;1.33;;;8.80;99.90;;;;;;5116837;28;20080;-76
2022/04/09 11:02:04;;;;;;;11.35;1.75;;;8.70;99.90;;;;;;5116747;28;20047;-76
2022/04/09 11:07:10;;;;;;;3.55;1.30;;;8.60;99.90;;;;;;5116383;28;20056;-77
2022/04/09 11:09:56;;;;;;;6.20;1.38;;;8.60;99.90;;;;;;5098268;28;20078;-76
2022/04/09 11:12:30;;;;;;;4.70;0.60;;;8.50;99.90;;;;;;5115712;28;20047;-75
2022/04/09 11:15:01;;;;;;;4.25;1.48;;;8.40;99.90;;;;;;5116483;28;20074;-77
2022/04/09 11:17:31;;;;;;;4.32;1.38;;;8.40;99.90;;;;;;5116371;28;20418;-77
2022/04/09 11:20:10;;;;;;;4.10;1.00;;;8.50;99.90;;;;;;5115649;28;20405;-76
2022/04/09 11:22:52;;;;;;;3.25;0.90;;;8.60;99.90;;;;;;5098322;28;20047;-76
2022/04/09 11:25:29;;;;;;;0.95;0.60;;;8.70;99.90;;;;;;5115463;28;20040;-76
2022/04/09 11:28:13;;;;;;;2.35;0.52;;;8.80;99.90;;;;;;5116352;28;20048;-76
2022/04/09 11:30:52;;;;;;;5.72;1.00;;;8.80;99.90;;;;;;5098199;28;20051;-77
2022/04/09 11:33:18;;;;;;;6.80;0.90;;;8.70;99.90;;;;;;5115256;28;20126;-77
2022/04/09 11:35:43;;;;;;;6.57;1.27;;;8.60;99.90;;;;;;5116202;28;20086;-77
2022/04/09 11:38:10;;;;;;;7.25;1.67;;;8.50;99.90;;;;;;5116019;28;20048;-76
2022/04/09 11:40:36;;;;;;;6.68;1.35;;;8.70;99.90;;;;;;5114991;28;20528;-76
2022/04/09 11:43:02;;;;;;;9.00;1.35;;;8.80;99.90;;;;;;5116024;28;20379;-77
2022/04/09 11:45:31;;;;;;;4.93;1.55;;;9.00;99.90;;;;;;5115858;28;20038;-77
2022/04/09 11:47:59;;;;;;;5.43;1.10;;;9.20;99.90;;;;;;5114878;28;20035;-77
2022/04/09 11:50:30;;;;;;;6.55;1.45;;;9.20;99.90;;;;;;5096468;28;20131;-77
2022/04/09 11:53:07;;;;;;;1.80;0.30;;;9.00;99.90;;;;;;5115347;28;20102;-77
2022/04/09 11:55:33;;;;;;;1.92;0.40;;;8.60;99.90;;;;;;5096609;28;20062;-75
2022/04/09 11:57:59;;;;;;;2.50;0.50;;;8.40;99.90;;;;;;5115425;28;20044;-77
2022/04/09 12:00:27;;;;;;;1.42;0.85;;;8.40;99.90;;;;;;5096365;28;20073;-76
2022/04/09 12:02:54;;;;;;;3.38;0.90;;;8.60;99.90;;;;;;5097072;28;20490;-76
2022/04/09 12:05:20;;;;;;;1.02;0.40;;;8.70;99.90;;;;;;5097157;28;20047;-77
2022/04/09 12:07:47;;;;;;;0.93;0.20;;;8.80;99.90;;;;;;5114613;28;20051;-77
2022/04/09 12:10:24;;;;;;;1.08;0.30;;;8.70;99.90;;;;;;5115462;28;20435;-77
2022/04/09 12:13:07;;;;;;;2.03;0.32;;;8.50;99.90;;;;;;5115380;28;20050;-77
2022/04/09 12:15:35;;;;;;;2.47;0.40;;;8.20;99.90;;;;;;5114459;28;20119;-76
2022/04/09 12:18:04;;;;;;;1.33;0.50;;;8.00;99.90;;;;;;5097191;28;20418;-77
2022/04/09 12:20:40;;;;;;;3.10;1.13;;;8.10;99.90;;;;;;5115300;28;20047;-77
2022/04/09 12:23:08;;;;;;;3.22;1.48;;;8.40;99.90;;;;;;5114206;28;20604;-78
2022/04/09 12:25:39;;;;;;;1.77;0.50;;;8.50;99.90;;;;;;5115170;28;20071;-78
2022/04/09 12:28:17;;;;;;;2.95;0.65;;;8.70;99.90;;;;;;5096836;28;20096;-78
2022/04/09 12:30:45;;;;;;;5.28;0.75;;;8.80;99.90;;;;;;5114136;28;20502;-77
2022/04/09 12:33:12;;;;;;;4.80;0.85;;;8.90;99.90;;;;;;5096558;28;20112;-77
2022/04/09 12:35:42;;;;;;;0.88;0.43;;;9.00;99.90;;;;;;5114136;28;20477;-78
2022/04/09 12:38:08;;;;;;;3.00;0.57;;;9.10;99.90;;;;;;5115011;28;20044;-76
2022/04/09 12:40:34;;;;;;;6.13;1.15;;;9.20;99.90;;;;;;5096672;28;20040;-77
2022/04/09 12:43:01;;;;;;;5.07;1.17;;;9.20;99.90;;;;;;5095644;28;20176;-78
2022/04/09 12:45:28;;;;;;;5.78;0.90;;;9.20;99.90;;;;;;5114810;28;20491;-77
2022/04/09 12:47:59;;;;;;;5.03;0.95;;;9.30;99.90;;;;;;5114746;28;20404;-78
2022/04/09 12:50:33;;;;;;;4.43;1.00;;;9.30;99.90;;;;;;5095547;28;20043;-77
2022/04/09 12:53:01;;;;;;;7.55;1.00;;;9.30;99.90;;;;;;5114260;28;20058;-78
2022/04/09 12:55:27;;;;;;;5.20;0.90;;;9.40;99.90;;;;;;5114657;28;20128;-78
2022/04/09 12:57:54;;;;;;;11.45;2.38;;;9.40;99.90;;;;;;5113663;28;20452;-77